Ashland, Oregon
Current Conditions -  °F | °C
As of 6:53 AM on Friday 28 Nov 2014 (Local Time) from KMFR Reporting Station
Broken Clouds Broken Clouds  
Wind Chill: 43°   Ceiling: 10000
Heat Index: 47°   Visibility: 10mi
Dew Point: 45°   Wind: 8mph
Humidity: 93%   Direction: 160°SSE
Pressure: 29.82"   Gusts: NA
Location:  42.2°N, 122.71°W
Report Text: KMFR 281453Z 16007KT 10SM BKN100 08/07 A2982 RMK AO2 SLP099 60000 T00830072 55002
Loading
Personal Weather Stations






























Interactive Weather Map New forecast layout! Learn more

10-Day Weather Forecast

Advertisements
Track Severe Weather on mobile